createdAt,value
2023-05-05T00:04:59.514Z,4.60
2023-05-05T00:11:01.372Z,4.40
2023-05-05T00:17:04.031Z,4.10
2023-05-05T00:23:05.792Z,4.50
2023-05-05T00:29:07.230Z,4.72
2023-05-05T00:35:09.203Z,4.63
2023-05-05T00:41:10.697Z,4.50
2023-05-05T00:47:12.763Z,4.43
2023-05-05T00:53:14.362Z,5.10
2023-05-05T00:59:15.974Z,4.82
2023-05-05T01:05:18.112Z,4.80
2023-05-05T01:11:22.554Z,4.90
2023-05-05T01:17:28.692Z,4.63
2023-05-05T01:23:49.175Z,4.60
2023-05-05T01:29:59.888Z,4.88
2023-05-05T01:36:04.154Z,4.82
2023-05-05T01:42:08.152Z,4.57
2023-05-05T01:48:12.595Z,5.40
2023-05-05T01:54:15.313Z,4.80
2023-05-05T02:00:19.325Z,4.97
2023-05-05T02:06:21.559Z,4.93
2023-05-05T02:12:23.023Z,5.20
2023-05-05T02:18:25.255Z,5.03
2023-05-05T02:24:27.025Z,4.90
2023-05-05T02:30:29.997Z,4.40
2023-05-05T02:36:33.303Z,5.00
2023-05-05T02:42:42.396Z,5.03
2023-05-05T02:48:46.207Z,5.18
2023-05-05T02:54:48.036Z,5.50
2023-05-05T03:00:55.658Z,5.13
2023-05-05T03:06:59.479Z,4.97
2023-05-05T03:13:04.202Z,5.00
2023-05-05T03:19:11.509Z,4.80
2023-05-05T03:25:14.394Z,5.07
2023-05-05T03:31:17.256Z,4.47
2023-05-05T03:37:21.990Z,4.90
2023-05-05T03:43:24.105Z,4.70
2023-05-05T03:49:26.740Z,5.30
2023-05-05T03:55:28.853Z,4.60
2023-05-05T04:01:31.443Z,5.10
2023-05-05T04:07:34.460Z,5.13
2023-05-05T04:13:36.688Z,5.00
2023-05-05T04:19:38.481Z,5.20
2023-05-05T04:25:42.345Z,5.50
2023-05-05T04:31:46.721Z,5.30
2023-05-05T04:37:49.526Z,5.05
2023-05-05T04:43:52.748Z,5.47
2023-05-05T04:49:54.932Z,5.40
2023-05-05T04:55:57.038Z,5.63
2023-05-05T05:01:58.662Z,5.50
2023-05-05T05:08:00.258Z,5.38
2023-05-05T05:14:01.981Z,5.27
2023-05-05T05:20:04.928Z,4.88
2023-05-05T05:26:09.008Z,5.27
2023-05-05T05:32:10.934Z,5.03
2023-05-05T05:38:12.974Z,4.93
2023-05-05T05:44:14.527Z,5.03
2023-05-05T05:50:16.408Z,4.90
2023-05-05T05:56:18.636Z,4.90
2023-05-05T06:02:20.860Z,4.57
2023-05-05T06:08:24.847Z,4.43
2023-05-05T06:14:29.885Z,4.33
2023-05-05T06:20:31.553Z,4.35
2023-05-05T06:26:33.260Z,4.50
2023-05-05T06:32:34.758Z,4.40
2023-05-05T06:38:36.401Z,3.83
2023-05-05T06:44:37.871Z,3.77
2023-05-05T06:50:39.334Z,4.43
2023-05-05T06:56:40.981Z,4.17
2023-05-05T07:02:43.384Z,3.75
2023-05-05T07:08:44.803Z,3.65
2023-05-05T07:14:46.469Z,3.30
2023-05-05T07:20:50.764Z,3.42
2023-05-05T07:26:52.723Z,3.50
2023-05-05T07:32:55.080Z,3.35
2023-05-05T07:38:56.755Z,3.20
2023-05-05T07:44:58.357Z,3.10
2023-05-05T07:50:59.936Z,3.08
2023-05-05T07:57:02.094Z,3.30
2023-05-05T08:03:03.841Z,3.38
2023-05-05T08:09:05.429Z,3.60
2023-05-05T08:15:07.405Z,2.97
2023-05-05T08:21:09.489Z,3.17
2023-05-05T08:27:14.667Z,2.87
2023-05-05T08:33:16.198Z,3.67
2023-05-05T08:39:17.826Z,3.20
2023-05-05T08:45:19.282Z,3.13
2023-05-05T08:51:20.989Z,3.20
2023-05-05T08:57:27.726Z,3.33
2023-05-05T09:03:29.649Z,3.10
2023-05-05T09:09:31.486Z,3.20
2023-05-05T09:15:36.648Z,2.80
2023-05-05T09:21:46.282Z,3.17
2023-05-05T09:27:49.163Z,3.10
2023-05-05T09:33:50.644Z,3.00
2023-05-05T09:39:53.600Z,3.25
2023-05-05T09:46:05.527Z,2.90
2023-05-05T09:52:14.791Z,2.80
2023-05-05T09:58:17.250Z,2.63
2023-05-05T10:04:26.860Z,2.70
2023-05-05T10:10:29.072Z,2.75
2023-05-05T10:16:32.841Z,2.57
2023-05-05T10:22:34.885Z,2.30
2023-05-05T10:28:44.721Z,2.40
2023-05-05T10:34:59.759Z,2.40
2023-05-05T10:41:02.074Z,2.63
2023-05-05T10:47:03.996Z,2.30
2023-05-05T10:53:23.505Z,2.83
2023-05-05T10:59:39.206Z,2.70
2023-05-05T11:06:00.943Z,3.13
2023-05-05T11:12:03.948Z,3.22
2023-05-05T11:18:07.974Z,3.10
2023-05-05T11:24:27.561Z,2.80
2023-05-05T11:30:29.256Z,2.47
2023-05-05T11:36:40.385Z,2.63
2023-05-05T11:42:41.917Z,2.65
2023-05-05T11:48:43.973Z,2.70
2023-05-05T11:54:48.661Z,2.35
2023-05-05T12:00:50.270Z,3.13
2023-05-05T12:06:51.942Z,2.80
2023-05-05T12:12:55.360Z,3.03
2023-05-05T12:19:07.860Z,3.00
2023-05-05T12:25:10.446Z,2.92
2023-05-05T12:31:11.918Z,2.93
2023-05-05T12:37:13.555Z,2.90
2023-05-05T12:43:35.272Z,2.80
2023-05-05T12:49:50.260Z,3.00
2023-05-05T12:55:52.327Z,3.00
2023-05-05T13:01:54.909Z,3.30
2023-05-05T13:07:56.436Z,3.33
2023-05-05T13:13:57.910Z,3.15
2023-05-05T13:19:59.402Z,3.17
2023-05-05T13:26:00.835Z,3.22
2023-05-05T13:32:02.372Z,2.93
2023-05-05T13:38:03.890Z,3.50
2023-05-05T13:44:05.367Z,3.40
2023-05-05T13:50:07.658Z,3.20
2023-05-05T13:56:09.179Z,3.35
2023-05-05T14:02:10.695Z,3.33
2023-05-05T14:08:12.898Z,3.10
2023-05-05T14:14:14.311Z,3.05
2023-05-05T14:20:16.217Z,3.83
2023-05-05T14:26:17.844Z,3.28
2023-05-05T14:32:19.613Z,3.20
2023-05-05T14:38:21.202Z,2.80
2023-05-05T14:44:22.671Z,2.78
2023-05-05T14:50:25.249Z,3.40
2023-05-05T14:56:26.922Z,3.13
2023-05-05T15:02:28.668Z,3.13
2023-05-05T15:08:30.351Z,2.90
2023-05-05T15:14:32.737Z,3.00
2023-05-05T15:20:34.430Z,2.70
2023-05-05T15:26:35.937Z,3.40
2023-05-05T15:32:37.472Z,2.90
2023-05-05T15:38:41.454Z,3.00
2023-05-05T15:44:43.250Z,3.10
2023-05-05T15:50:44.679Z,3.00
2023-05-05T15:56:46.240Z,3.10
2023-05-05T16:02:47.929Z,3.10
2023-05-05T16:08:51.645Z,3.15
2023-05-05T16:14:53.233Z,3.08
2023-05-05T16:20:54.649Z,3.17
2023-05-05T16:26:56.073Z,3.30
2023-05-05T16:32:57.614Z,3.00
2023-05-05T16:39:01.854Z,3.72
2023-05-05T16:45:03.388Z,3.42
2023-05-05T16:51:04.919Z,3.67
2023-05-05T16:57:06.382Z,3.42
2023-05-05T17:03:07.976Z,3.70
2023-05-05T17:09:09.613Z,3.50
2023-05-05T17:15:11.488Z,3.30
2023-05-05T17:21:13.103Z,3.60
2023-05-05T17:27:14.687Z,3.78
2023-05-05T17:33:18.335Z,4.00
2023-05-05T17:39:19.925Z,3.42
2023-05-05T17:45:21.463Z,3.58
2023-05-05T17:51:22.944Z,3.50
2023-05-05T17:57:24.386Z,3.67
2023-05-05T18:03:26.253Z,3.40
2023-05-05T18:09:28.028Z,3.75
2023-05-05T18:15:30.082Z,3.85
2023-05-05T18:21:32.053Z,3.97
2023-05-05T18:27:37.320Z,3.70
2023-05-05T18:33:39.058Z,5.10
2023-05-05T18:39:43.796Z,4.10
2023-05-05T18:45:45.988Z,3.80
2023-05-05T18:51:47.719Z,3.70
2023-05-05T18:57:49.498Z,3.95
2023-05-05T19:03:51.653Z,4.00
2023-05-05T19:09:53.831Z,4.15
2023-05-05T19:15:57.216Z,4.35
2023-05-05T19:21:59.956Z,4.47
2023-05-05T19:28:03.165Z,4.30
2023-05-05T19:34:07.695Z,5.37
2023-05-05T19:40:09.921Z,5.32
2023-05-05T19:46:13.254Z,5.30
2023-05-05T19:52:15.320Z,5.87
2023-05-05T19:58:17.279Z,6.22
2023-05-05T20:04:19.189Z,5.47
2023-05-05T20:10:21.591Z,5.60
2023-05-05T20:16:23.487Z,6.22
2023-05-05T20:22:26.630Z,5.73
2023-05-05T20:28:31.466Z,6.55
2023-05-05T20:34:33.198Z,6.30
2023-05-05T20:40:36.054Z,6.80
2023-05-05T20:46:38.806Z,7.13
2023-05-05T20:52:40.590Z,6.87
2023-05-05T20:58:42.366Z,6.50
2023-05-05T21:04:46.525Z,6.80
2023-05-05T21:10:48.459Z,6.90
2023-05-05T21:16:51.454Z,6.35
2023-05-05T21:22:53.267Z,6.50
2023-05-05T21:28:54.883Z,6.45
2023-05-05T21:34:56.493Z,8.47
2023-05-05T21:40:58.946Z,6.55
2023-05-05T21:47:00.492Z,6.80
2023-05-05T21:53:01.918Z,7.00
2023-05-05T21:59:05.193Z,6.72
2023-05-05T22:05:07.176Z,6.87
2023-05-05T22:11:27.061Z,7.20
2023-05-05T22:17:28.647Z,7.70
2023-05-05T22:23:30.346Z,8.17
2023-05-05T22:29:32.050Z,8.68
2023-05-05T22:35:33.599Z,7.80
2023-05-05T22:41:35.170Z,8.20
2023-05-05T22:47:36.832Z,8.43
2023-05-05T22:53:38.773Z,9.07
2023-05-05T22:59:40.258Z,9.35
2023-05-05T23:05:42.161Z,9.37
2023-05-05T23:11:44.327Z,8.63
2023-05-05T23:17:45.963Z,9.43
2023-05-05T23:23:49.123Z,9.43
2023-05-05T23:29:50.699Z,9.45
2023-05-05T23:35:52.312Z,9.40
2023-05-05T23:41:57.440Z,9.27
2023-05-05T23:47:59.051Z,9.68
2023-05-05T23:54:01.072Z,9.47
